createdAt,value
2023-03-29T00:02:11.395Z,34.24
2023-03-29T00:04:39.482Z,34.64
2023-03-29T00:07:08.275Z,34.31
2023-03-29T00:09:35.840Z,34.61
2023-03-29T00:12:04.010Z,34.65
2023-03-29T00:14:31.543Z,34.66
2023-03-29T00:16:59.273Z,34.59
2023-03-29T00:19:26.996Z,34.61
2023-03-29T00:21:54.469Z,34.01
2023-03-29T00:24:23.864Z,34.11
2023-03-29T00:26:51.584Z,34.45
2023-03-29T00:29:19.150Z,34.66
2023-03-29T00:31:52.424Z,34.35
2023-03-29T00:34:21.000Z,34.35
2023-03-29T00:36:52.999Z,34.65
2023-03-29T00:39:21.159Z,34.39
2023-03-29T00:41:50.064Z,34.31
2023-03-29T00:44:54.994Z,34.54
2023-03-29T00:47:42.616Z,34.84
2023-03-29T00:50:17.060Z,34.99
2023-03-29T00:52:47.559Z,34.42
2023-03-29T00:55:18.794Z,34.13
2023-03-29T00:57:46.890Z,34.17
2023-03-29T01:00:18.211Z,34.39
2023-03-29T01:02:51.118Z,34.00
2023-03-29T01:05:22.720Z,34.22
2023-03-29T01:07:59.455Z,34.42
2023-03-29T01:10:37.728Z,34.75
2023-03-29T01:13:09.651Z,34.42
2023-03-29T01:15:39.018Z,34.74
2023-03-29T01:18:06.881Z,34.74
2023-03-29T01:21:23.768Z,34.66
2023-03-29T01:24:24.850Z,34.29
2023-03-29T01:27:14.770Z,34.43
2023-03-29T01:29:54.240Z,34.08
2023-03-29T01:32:25.144Z,34.15
2023-03-29T01:34:59.986Z,34.19
2023-03-29T01:37:32.419Z,34.26
2023-03-29T01:40:00.856Z,33.88
2023-03-29T01:42:40.831Z,33.73
2023-03-29T01:45:56.185Z,33.89
2023-03-29T01:48:29.592Z,36.27
2023-03-29T01:51:05.526Z,35.25
2023-03-29T01:53:40.609Z,35.93
2023-03-29T01:56:12.548Z,35.42
2023-03-29T01:58:44.806Z,35.67
2023-03-29T02:01:17.691Z,35.30
2023-03-29T02:03:50.021Z,34.82
2023-03-29T02:06:20.671Z,36.34
2023-03-29T02:08:48.728Z,34.63
2023-03-29T02:11:16.328Z,35.21
2023-03-29T02:13:44.028Z,35.46
2023-03-29T02:16:13.229Z,35.27
2023-03-29T02:18:46.562Z,35.06
2023-03-29T02:21:24.424Z,35.00
2023-03-29T02:23:54.756Z,34.85
2023-03-29T02:26:23.991Z,35.12
2023-03-29T02:28:52.826Z,34.51
2023-03-29T02:31:34.023Z,34.39
2023-03-29T02:34:43.509Z,34.37
2023-03-29T02:37:15.783Z,34.87
2023-03-29T02:39:43.921Z,34.92
2023-03-29T02:42:11.522Z,35.09
2023-03-29T02:44:41.317Z,34.88
2023-03-29T02:47:25.253Z,35.04
2023-03-29T02:49:53.118Z,35.18
2023-03-29T02:52:27.513Z,35.83
2023-03-29T02:54:55.814Z,36.55
2023-03-29T02:57:26.819Z,36.38
2023-03-29T02:59:55.750Z,36.22
2023-03-29T03:02:27.910Z,36.72
2023-03-29T03:04:55.483Z,36.42
2023-03-29T03:07:24.923Z,36.34
2023-03-29T03:09:52.751Z,36.16
2023-03-29T03:12:20.320Z,35.72
2023-03-29T03:14:48.329Z,35.98
2023-03-29T03:17:15.834Z,35.80
2023-03-29T03:19:43.357Z,35.41
2023-03-29T03:22:11.643Z,36.10
2023-03-29T03:24:39.060Z,36.92
2023-03-29T03:27:08.517Z,35.08
2023-03-29T03:29:38.493Z,35.57
2023-03-29T03:32:06.496Z,34.84
2023-03-29T03:34:36.378Z,34.15
2023-03-29T03:37:04.055Z,33.86
2023-03-29T03:39:32.651Z,34.14
2023-03-29T03:42:00.406Z,34.69
2023-03-29T03:44:28.616Z,34.68
2023-03-29T03:46:56.706Z,35.04
2023-03-29T03:49:24.403Z,35.02
2023-03-29T03:51:53.154Z,34.93
2023-03-29T03:54:20.551Z,35.02
2023-03-29T03:56:49.124Z,34.90
2023-03-29T03:59:17.088Z,34.71
2023-03-29T04:01:45.384Z,34.85
2023-03-29T04:04:14.458Z,34.47
2023-03-29T04:06:44.170Z,34.94
2023-03-29T04:09:14.330Z,35.31
2023-03-29T04:11:42.412Z,34.98
2023-03-29T04:14:11.231Z,36.06
2023-03-29T04:16:39.855Z,36.02
2023-03-29T04:19:08.393Z,34.10
2023-03-29T04:21:35.942Z,35.42
2023-03-29T04:24:03.717Z,35.61
2023-03-29T04:26:31.939Z,36.35
2023-03-29T04:29:01.420Z,37.01
2023-03-29T04:31:30.993Z,35.74
2023-03-29T04:34:00.412Z,36.32
2023-03-29T04:36:28.363Z,35.61
2023-03-29T04:38:56.276Z,35.19
2023-03-29T04:41:26.003Z,33.86
2023-03-29T04:43:56.074Z,35.31
2023-03-29T04:46:27.054Z,34.81
2023-03-29T04:48:56.132Z,35.02
2023-03-29T04:51:24.788Z,34.54
2023-03-29T04:53:52.380Z,35.03
2023-03-29T04:56:19.849Z,34.69
2023-03-29T04:58:49.778Z,34.14
2023-03-29T05:01:17.861Z,34.19
2023-03-29T05:03:45.969Z,35.84
2023-03-29T05:06:14.269Z,35.49
2023-03-29T05:08:41.921Z,34.63
2023-03-29T05:11:10.915Z,34.68
2023-03-29T05:13:38.636Z,34.54
2023-03-29T05:16:06.969Z,35.81
2023-03-29T05:18:34.701Z,35.31
2023-03-29T05:21:04.643Z,35.06
2023-03-29T05:23:32.663Z,35.02
2023-03-29T05:26:01.862Z,35.83
2023-03-29T05:28:29.598Z,35.54
2023-03-29T05:31:05.161Z,35.46
2023-03-29T05:33:34.613Z,34.94
2023-03-29T05:36:05.184Z,34.95
2023-03-29T05:38:34.675Z,35.76
2023-03-29T05:41:03.492Z,35.05
2023-03-29T05:43:34.074Z,34.50
2023-03-29T05:46:02.100Z,35.09
2023-03-29T05:48:30.096Z,35.72
2023-03-29T05:50:57.859Z,35.43
2023-03-29T05:53:27.527Z,35.77
2023-03-29T05:55:55.170Z,35.83
2023-03-29T05:58:23.058Z,35.86
2023-03-29T06:00:51.299Z,35.46
2023-03-29T06:03:23.743Z,35.17
2023-03-29T06:06:04.905Z,35.51
2023-03-29T06:08:34.012Z,35.04
2023-03-29T06:11:05.194Z,34.81
2023-03-29T06:13:35.089Z,34.59
2023-03-29T06:16:02.492Z,35.08
2023-03-29T06:18:30.186Z,34.60
2023-03-29T06:20:57.918Z,34.46
2023-03-29T06:23:25.910Z,34.10
2023-03-29T06:25:53.660Z,33.47
2023-03-29T06:28:21.899Z,35.74
2023-03-29T06:30:49.961Z,34.10
2023-03-29T06:33:18.846Z,33.57
2023-03-29T06:35:48.627Z,33.31
2023-03-29T06:38:16.719Z,34.12
2023-03-29T06:40:45.630Z,33.59
2023-03-29T06:43:14.149Z,31.49
2023-03-29T06:45:43.468Z,32.00
2023-03-29T06:48:12.405Z,32.61
2023-03-29T06:50:41.398Z,32.70
2023-03-29T06:53:09.441Z,32.00
2023-03-29T06:55:36.862Z,32.47
2023-03-29T06:58:09.265Z,31.17
2023-03-29T07:00:39.133Z,30.83
2023-03-29T07:03:09.931Z,30.27
2023-03-29T07:05:40.846Z,31.01
2023-03-29T07:08:08.778Z,31.58
2023-03-29T07:10:39.534Z,31.57
2023-03-29T07:13:12.165Z,31.17
2023-03-29T07:15:41.824Z,31.48
2023-03-29T07:18:10.900Z,31.18
2023-03-29T07:20:39.074Z,31.57
2023-03-29T07:23:08.130Z,29.79
2023-03-29T07:25:36.454Z,30.18
2023-03-29T07:28:04.834Z,29.40
2023-03-29T07:30:32.836Z,29.30
2023-03-29T07:33:05.866Z,28.88
2023-03-29T07:35:34.022Z,31.02
2023-03-29T07:38:01.850Z,29.08
2023-03-29T07:40:29.515Z,28.54
2023-03-29T07:43:11.058Z,28.50
2023-03-29T07:45:42.372Z,28.48
2023-03-29T07:48:10.495Z,26.77
2023-03-29T07:50:39.163Z,26.32
2023-03-29T07:53:07.279Z,26.31
2023-03-29T07:55:35.326Z,25.24
2023-03-29T07:58:04.369Z,26.77
2023-03-29T08:00:34.217Z,25.48
2023-03-29T08:03:04.299Z,25.46
2023-03-29T08:05:40.899Z,27.62
2023-03-29T08:08:10.053Z,23.70
2023-03-29T08:10:39.452Z,23.93
2023-03-29T08:13:09.643Z,25.57
2023-03-29T08:15:39.604Z,26.26
2023-03-29T08:18:08.486Z,23.60
2023-03-29T08:20:36.340Z,25.28
2023-03-29T08:23:04.809Z,22.97
2023-03-29T08:25:32.957Z,23.28
2023-03-29T08:28:00.523Z,24.84
2023-03-29T08:30:29.160Z,23.70
2023-03-29T08:32:56.976Z,24.71
2023-03-29T08:35:24.595Z,24.75
2023-03-29T08:37:52.867Z,25.03
2023-03-29T08:40:22.420Z,25.86
2023-03-29T08:43:14.364Z,25.88
2023-03-29T08:45:52.169Z,25.79
2023-03-29T08:48:29.967Z,26.69
2023-03-29T08:51:18.083Z,27.92
2023-03-29T08:54:00.624Z,25.80
2023-03-29T08:56:33.500Z,26.14
2023-03-29T08:59:03.490Z,26.63
2023-03-29T09:01:38.395Z,25.79
2023-03-29T09:04:17.096Z,25.29
2023-03-29T09:06:45.407Z,25.56
2023-03-29T09:09:16.027Z,24.92
2023-03-29T09:12:02.817Z,25.58
2023-03-29T09:14:52.733Z,24.72
2023-03-29T09:17:49.052Z,24.80
2023-03-29T09:20:33.248Z,23.02
2023-03-29T09:23:22.462Z,23.42
2023-03-29T09:26:03.059Z,22.41
2023-03-29T09:28:38.248Z,22.83
2023-03-29T09:31:10.268Z,23.25
2023-03-29T09:33:45.033Z,23.88
2023-03-29T09:36:24.183Z,23.19
2023-03-29T09:38:54.406Z,23.02
2023-03-29T09:41:44.106Z,23.48
2023-03-29T09:46:53.958Z,22.00
2023-03-29T09:49:27.418Z,22.50
2023-03-29T09:51:58.185Z,21.80
2023-03-29T09:54:26.083Z,22.29
2023-03-29T09:56:54.615Z,22.79
2023-03-29T09:59:22.731Z,23.77
2023-03-29T10:01:50.299Z,22.83
2023-03-29T10:04:18.104Z,22.31
2023-03-29T10:06:50.290Z,24.08
2023-03-29T10:09:24.082Z,23.35
2023-03-29T10:11:53.944Z,22.87
2023-03-29T10:14:37.135Z,22.73
2023-03-29T10:17:07.121Z,22.49
2023-03-29T10:19:36.090Z,21.97
2023-03-29T10:22:23.322Z,23.13
2023-03-29T10:24:52.880Z,22.00
2023-03-29T10:27:31.379Z,23.60
2023-03-29T10:30:01.030Z,22.76
2023-03-29T10:32:33.636Z,23.39
2023-03-29T10:35:13.334Z,23.04
2023-03-29T10:37:45.283Z,22.25
2023-03-29T10:40:24.746Z,21.84
2023-03-29T10:42:54.014Z,23.38
2023-03-29T10:45:26.501Z,22.79
2023-03-29T10:47:56.842Z,23.20
2023-03-29T10:50:26.708Z,22.38
2023-03-29T10:52:54.207Z,21.85
2023-03-29T10:55:22.141Z,22.97
2023-03-29T10:57:56.269Z,23.85
2023-03-29T11:00:33.384Z,22.74
2023-03-29T11:03:23.549Z,21.93
2023-03-29T11:05:58.727Z,22.25
2023-03-29T11:08:43.456Z,21.74
2023-03-29T11:11:13.814Z,21.47
2023-03-29T11:13:48.023Z,21.87
2023-03-29T11:16:23.775Z,23.00
2023-03-29T11:19:21.857Z,23.14
2023-03-29T11:22:04.684Z,22.84
2023-03-29T11:24:38.285Z,26.37
2023-03-29T11:27:36.950Z,26.99
2023-03-29T11:30:13.666Z,26.78
2023-03-29T11:32:48.546Z,25.70
2023-03-29T11:35:28.398Z,25.92
2023-03-29T11:38:02.212Z,25.64
2023-03-29T11:40:57.678Z,25.88
2023-03-29T11:43:31.186Z,26.11
2023-03-29T11:46:21.757Z,25.54
2023-03-29T11:48:54.233Z,26.26
2023-03-29T11:52:01.067Z,26.26
2023-03-29T11:54:34.499Z,26.19
2023-03-29T11:57:14.839Z,25.54
2023-03-29T12:00:18.989Z,26.30
2023-03-29T12:02:57.018Z,25.87
2023-03-29T12:05:27.441Z,27.02
2023-03-29T12:08:07.278Z,26.49
2023-03-29T12:10:57.683Z,26.05
2023-03-29T12:13:38.842Z,26.33
2023-03-29T12:16:20.677Z,26.81
2023-03-29T12:18:50.493Z,28.50
2023-03-29T12:21:22.738Z,28.51
2023-03-29T12:23:51.933Z,28.85
2023-03-29T12:26:34.356Z,28.15
2023-03-29T12:29:15.634Z,29.02
2023-03-29T12:32:04.380Z,27.98
2023-03-29T12:34:58.546Z,28.63
2023-03-29T12:37:36.041Z,28.17
2023-03-29T12:40:15.592Z,27.73
2023-03-29T12:43:02.538Z,28.88
2023-03-29T12:45:38.124Z,30.03
2023-03-29T12:48:07.553Z,32.40
2023-03-29T12:50:48.375Z,31.48
2023-03-29T12:53:19.012Z,32.38
2023-03-29T12:55:55.145Z,31.48
2023-03-29T12:58:40.613Z,30.76
2023-03-29T13:01:36.971Z,32.05
2023-03-29T13:04:13.847Z,31.91
2023-03-29T13:06:47.539Z,30.90
2023-03-29T13:09:35.290Z,30.03
2023-03-29T13:12:11.718Z,29.85
2023-03-29T13:14:45.442Z,30.01
2023-03-29T13:17:22.814Z,29.63
2023-03-29T13:20:12.515Z,29.78
2023-03-29T13:22:47.929Z,28.62
2023-03-29T13:25:34.392Z,28.24
2023-03-29T13:28:12.262Z,28.32
2023-03-29T13:30:43.833Z,30.44
2023-03-29T13:33:30.089Z,31.53
2023-03-29T13:36:20.047Z,29.88
2023-03-29T13:38:49.538Z,28.31
2023-03-29T13:41:51.745Z,29.80
2023-03-29T13:44:22.238Z,29.55
2023-03-29T13:47:02.149Z,27.57
2023-03-29T13:49:31.733Z,28.10
2023-03-29T13:52:05.388Z,30.13
2023-03-29T13:54:37.513Z,30.81
2023-03-29T13:57:08.869Z,31.20
2023-03-29T13:59:45.188Z,31.46
2023-03-29T14:02:29.523Z,30.10
2023-03-29T14:04:59.923Z,30.47
2023-03-29T14:07:29.053Z,30.22
2023-03-29T14:09:58.682Z,30.61
2023-03-29T14:12:29.531Z,30.69
2023-03-29T14:15:00.976Z,30.20
2023-03-29T14:17:29.250Z,30.10
2023-03-29T14:19:58.924Z,28.96
2023-03-29T14:22:31.282Z,28.96
2023-03-29T14:25:02.844Z,28.68
2023-03-29T14:27:31.852Z,28.56
2023-03-29T14:29:59.973Z,29.23
2023-03-29T14:32:29.626Z,29.04
2023-03-29T14:34:58.005Z,27.70
2023-03-29T14:37:27.712Z,28.42
2023-03-29T14:39:56.445Z,28.94
2023-03-29T14:42:28.429Z,28.80
2023-03-29T14:45:04.278Z,30.14
2023-03-29T14:47:33.165Z,29.67
2023-03-29T14:50:01.676Z,28.84
2023-03-29T14:52:30.823Z,29.76
2023-03-29T14:55:02.344Z,28.35
2023-03-29T14:57:35.471Z,29.56
2023-03-29T15:00:28.443Z,29.33
2023-03-29T15:03:01.480Z,28.55
2023-03-29T15:05:33.899Z,28.01
2023-03-29T15:08:02.343Z,28.41
2023-03-29T15:10:32.900Z,28.54
2023-03-29T15:13:02.743Z,28.13
2023-03-29T15:15:32.263Z,28.28
2023-03-29T15:18:00.491Z,28.06
2023-03-29T15:20:29.945Z,28.92
2023-03-29T15:23:14.461Z,28.87
2023-03-29T15:25:59.287Z,28.03
2023-03-29T15:28:28.411Z,28.37
2023-03-29T15:31:07.975Z,28.76
2023-03-29T15:33:38.502Z,28.22
2023-03-29T15:36:08.131Z,28.71
2023-03-29T15:38:43.888Z,28.67
2023-03-29T15:41:14.202Z,28.54
2023-03-29T15:43:42.659Z,29.93
2023-03-29T15:46:14.028Z,29.15
2023-03-29T15:48:42.290Z,28.58
2023-03-29T15:51:12.511Z,28.64
2023-03-29T15:53:40.416Z,28.30
2023-03-29T15:56:11.324Z,29.23
2023-03-29T15:58:39.196Z,29.91
2023-03-29T16:01:34.152Z,30.52
2023-03-29T16:04:02.851Z,30.61
2023-03-29T16:06:30.833Z,31.71
2023-03-29T16:08:58.274Z,31.20
2023-03-29T16:11:28.386Z,30.65
2023-03-29T16:13:56.596Z,31.69
2023-03-29T16:16:24.357Z,32.70
2023-03-29T16:18:52.092Z,32.77
2023-03-29T16:21:22.235Z,31.00
2023-03-29T16:23:50.036Z,30.81
2023-03-29T16:26:17.856Z,30.60
2023-03-29T16:28:45.409Z,30.53
2023-03-29T16:31:13.643Z,30.93
2023-03-29T16:33:41.621Z,31.76
2023-03-29T16:36:09.903Z,32.99
2023-03-29T16:38:37.532Z,32.96
2023-03-29T16:41:05.598Z,33.53
2023-03-29T16:43:33.204Z,33.56
2023-03-29T16:46:00.660Z,34.80
2023-03-29T16:48:28.517Z,35.06
2023-03-29T16:50:56.020Z,34.69
2023-03-29T16:53:23.737Z,34.16
2023-03-29T16:55:51.565Z,34.23
2023-03-29T16:58:19.179Z,35.06
2023-03-29T17:00:48.479Z,35.57
2023-03-29T17:03:16.861Z,36.48
2023-03-29T17:05:52.117Z,37.51
2023-03-29T17:08:20.293Z,37.34
2023-03-29T17:10:52.755Z,37.27
2023-03-29T17:13:22.043Z,37.73
2023-03-29T17:15:53.770Z,37.86
2023-03-29T17:18:22.645Z,38.53
2023-03-29T17:20:51.326Z,37.88
2023-03-29T17:23:18.834Z,38.08
2023-03-29T17:25:46.824Z,37.87
2023-03-29T17:28:14.415Z,38.39
2023-03-29T17:30:46.218Z,39.32
2023-03-29T17:33:14.278Z,38.40
2023-03-29T17:35:44.919Z,38.00
2023-03-29T17:38:12.473Z,38.32
2023-03-29T17:40:40.143Z,38.93
2023-03-29T17:43:07.588Z,38.69
2023-03-29T17:45:35.550Z,39.28
2023-03-29T17:48:06.077Z,38.66
2023-03-29T17:50:34.418Z,38.56
2023-03-29T17:53:02.011Z,38.37
2023-03-29T17:55:29.666Z,38.41
2023-03-29T17:57:57.212Z,39.22
2023-03-29T18:00:24.867Z,39.08
2023-03-29T18:02:52.860Z,39.60
2023-03-29T18:05:20.396Z,38.87
2023-03-29T18:07:47.809Z,38.76
2023-03-29T18:10:15.843Z,38.49
2023-03-29T18:12:43.250Z,38.52
2023-03-29T18:15:11.245Z,38.21
2023-03-29T18:17:39.159Z,38.84
2023-03-29T18:20:11.112Z,38.17
2023-03-29T18:22:40.075Z,37.90
2023-03-29T18:25:09.510Z,37.51
2023-03-29T18:27:38.310Z,37.66
2023-03-29T18:30:08.644Z,37.95
2023-03-29T18:32:36.781Z,37.73
2023-03-29T18:35:05.049Z,37.64
2023-03-29T18:37:33.166Z,37.67
2023-03-29T18:40:00.608Z,37.60
2023-03-29T18:42:28.249Z,37.96
2023-03-29T18:44:57.180Z,37.71
2023-03-29T18:47:24.666Z,38.45
2023-03-29T18:49:52.367Z,39.15
2023-03-29T18:52:20.327Z,38.26
2023-03-29T18:54:47.744Z,37.82
2023-03-29T18:57:15.439Z,37.96
2023-03-29T18:59:43.403Z,38.63
2023-03-29T19:02:11.181Z,38.02
2023-03-29T19:04:39.013Z,37.99
2023-03-29T19:07:08.845Z,37.82
2023-03-29T19:09:36.266Z,37.73
2023-03-29T19:12:04.075Z,37.90
2023-03-29T19:14:31.920Z,37.80
2023-03-29T19:16:59.482Z,37.69
2023-03-29T19:19:27.778Z,37.84
2023-03-29T19:21:57.699Z,37.58
2023-03-29T19:24:27.450Z,37.86
2023-03-29T19:26:56.560Z,38.16
2023-03-29T19:29:24.230Z,37.97
2023-03-29T19:31:52.013Z,37.83
2023-03-29T19:34:22.865Z,37.97
2023-03-29T19:36:51.571Z,38.01
2023-03-29T19:39:19.385Z,37.91
2023-03-29T19:41:47.390Z,38.36
2023-03-29T19:44:15.667Z,38.01
2023-03-29T19:46:43.365Z,37.92
2023-03-29T19:49:13.680Z,37.84
2023-03-29T19:51:42.379Z,37.79
2023-03-29T19:54:12.200Z,37.79
2023-03-29T19:56:40.731Z,37.94
2023-03-29T19:59:11.002Z,37.62
2023-03-29T20:01:40.653Z,37.69
2023-03-29T20:04:09.211Z,37.64
2023-03-29T20:06:36.803Z,37.86
2023-03-29T20:09:05.209Z,37.85
2023-03-29T20:11:32.962Z,38.56
2023-03-29T20:14:00.670Z,38.58
2023-03-29T20:16:29.790Z,38.45
2023-03-29T20:18:57.528Z,38.74
2023-03-29T20:21:25.066Z,38.66
2023-03-29T20:23:52.644Z,38.12
2023-03-29T20:26:20.309Z,39.13
2023-03-29T20:28:47.933Z,38.55
2023-03-29T20:31:15.867Z,38.08
2023-03-29T20:33:44.480Z,37.93
2023-03-29T20:36:12.316Z,38.28
2023-03-29T20:38:39.730Z,38.21
2023-03-29T20:41:09.253Z,38.48
2023-03-29T20:43:37.876Z,38.31
2023-03-29T20:46:14.308Z,38.38
2023-03-29T20:48:54.680Z,38.48
2023-03-29T20:51:28.113Z,38.63
2023-03-29T20:54:04.491Z,40.79
2023-03-29T20:56:34.335Z,40.81
2023-03-29T20:59:02.974Z,40.39
2023-03-29T21:01:30.780Z,39.67
2023-03-29T21:03:58.307Z,39.57
2023-03-29T21:06:26.096Z,40.10
2023-03-29T21:08:53.562Z,39.61
2023-03-29T21:11:21.045Z,39.88
2023-03-29T21:13:48.807Z,40.11
2023-03-29T21:16:16.233Z,40.75
2023-03-29T21:18:43.707Z,40.28
2023-03-29T21:21:11.911Z,40.58
2023-03-29T21:23:39.458Z,40.81
2023-03-29T21:26:07.808Z,40.72
2023-03-29T21:28:37.586Z,40.51
2023-03-29T21:31:06.287Z,40.17
2023-03-29T21:33:34.900Z,40.00
2023-03-29T21:36:02.745Z,39.84
2023-03-29T21:38:30.685Z,40.04
2023-03-29T21:40:58.267Z,39.49
2023-03-29T21:43:26.163Z,39.37
2023-03-29T21:45:53.671Z,39.31
2023-03-29T21:48:21.043Z,39.14
2023-03-29T21:50:50.098Z,39.00
2023-03-29T21:53:18.302Z,39.20
2023-03-29T21:55:48.549Z,39.90
2023-03-29T21:58:16.698Z,39.96
2023-03-29T22:00:45.466Z,39.99
2023-03-29T22:03:14.389Z,40.01
2023-03-29T22:05:42.039Z,39.94
2023-03-29T22:08:12.315Z,40.76
2023-03-29T22:10:43.044Z,41.75
2023-03-29T22:13:10.455Z,41.21
2023-03-29T22:15:38.939Z,41.66
2023-03-29T22:18:06.764Z,41.51
2023-03-29T22:20:34.243Z,40.60
2023-03-29T22:23:01.772Z,40.87
2023-03-29T22:25:29.474Z,41.55
2023-03-29T22:27:56.907Z,41.76
2023-03-29T22:30:24.265Z,41.72
2023-03-29T22:32:52.023Z,42.05
2023-03-29T22:35:19.806Z,41.50
2023-03-29T22:37:47.188Z,41.87
2023-03-29T22:40:14.903Z,42.05
2023-03-29T22:42:42.319Z,42.08
2023-03-29T22:45:10.372Z,41.73
2023-03-29T22:47:38.220Z,42.05
2023-03-29T22:50:07.222Z,41.93
2023-03-29T22:52:34.657Z,42.12
2023-03-29T22:55:02.416Z,41.97
2023-03-29T22:57:29.901Z,41.86
2023-03-29T22:59:57.371Z,41.96
2023-03-29T23:02:25.219Z,42.01
2023-03-29T23:04:52.760Z,42.82
2023-03-29T23:07:20.776Z,42.73
2023-03-29T23:09:48.651Z,43.48
2023-03-29T23:12:16.262Z,42.68
2023-03-29T23:14:45.183Z,42.33
2023-03-29T23:17:13.524Z,42.08
2023-03-29T23:19:41.637Z,42.07
2023-03-29T23:22:09.112Z,42.35
2023-03-29T23:24:36.865Z,42.29
2023-03-29T23:27:05.591Z,42.85
2023-03-29T23:29:34.515Z,42.47
2023-03-29T23:32:02.793Z,42.66
2023-03-29T23:34:30.671Z,43.18
2023-03-29T23:36:58.268Z,42.69
2023-03-29T23:39:25.925Z,42.34
2023-03-29T23:41:53.331Z,42.52
2023-03-29T23:44:20.711Z,42.43
2023-03-29T23:46:48.477Z,42.80
2023-03-29T23:49:17.238Z,42.41
2023-03-29T23:51:45.050Z,42.53
2023-03-29T23:54:12.962Z,42.47
2023-03-29T23:56:40.436Z,42.04
2023-03-29T23:59:07.851Z,42.35
